Time;durP1;ratioP1;P1;durP2;ratioP2;P2;SDS_P1;SDS_P2;PMS_P1;PMS_P2;Temp;Humidity;BMP_temperature;BMP_pressure;BME280_temperature;BME280_humidity;BME280_pressure;Samples;Min_cycle;Max_cycle;Signal;HPM_P1;HPM_P2
2023/09/30 00:01:11;;;;;;;4.55;1.25;;;18.50;97.10;;;;;;5102583;28;20028;-66
2023/09/30 00:03:37;;;;;;;4.03;1.27;;;18.40;97.30;;;;;;5100821;28;20035;-66
2023/09/30 00:06:03;;;;;;;3.80;1.45;;;18.40;97.30;;;;;;5102325;28;20039;-66
2023/09/30 00:08:30;;;;;;;6.50;1.60;;;18.40;97.40;;;;;;5101959;28;20020;-66
2023/09/30 00:10:56;;;;;;;4.60;1.42;;;18.50;97.50;;;;;;5099587;28;20032;-66
2023/09/30 00:13:22;;;;;;;9.57;1.45;;;18.50;97.60;;;;;;5103042;27;20035;-66
2023/09/30 00:15:48;;;;;;;6.88;1.65;;;18.40;97.60;;;;;;5100610;28;20059;-66
2023/09/30 00:18:14;;;;;;;7.10;1.70;;;18.40;97.70;;;;;;5102445;28;20081;-68
2023/09/30 00:20:40;;;;;;;6.45;1.23;;;18.40;97.90;;;;;;5099545;28;20031;-69
2023/09/30 00:23:06;;;;;;;7.75;1.60;;;18.40;98.00;;;;;;5102629;28;20015;-69
2023/09/30 00:25:35;;;;;;;7.63;1.50;;;18.30;98.00;;;;;;5099109;28;20035;-69
2023/09/30 00:28:01;;;;;;;10.15;1.75;;;18.30;98.20;;;;;;5104987;28;20031;-69
2023/09/30 00:30:27;;;;;;;9.55;2.00;;;18.20;98.20;;;;;;5104145;28;20526;-68
2023/09/30 00:32:52;;;;;;;7.93;1.45;;;18.10;98.20;;;;;;5099890;28;20472;-69
2023/09/30 00:35:18;;;;;;;8.25;1.77;;;18.10;98.30;;;;;;5100198;28;20036;-69
2023/09/30 00:37:44;;;;;;;7.38;1.60;;;18.10;98.60;;;;;;5103428;28;20036;-69
2023/09/30 00:40:11;;;;;;;7.10;1.55;;;18.00;98.20;;;;;;5100556;28;20042;-69
2023/09/30 00:42:41;;;;;;;5.88;1.63;;;18.00;98.20;;;;;;5104440;28;20061;-69
2023/09/30 00:45:12;;;;;;;7.25;1.27;;;17.90;98.20;;;;;;5100083;28;20491;-69
2023/09/30 00:47:38;;;;;;;8.10;1.50;;;17.90;98.20;;;;;;5102342;28;20047;-70
2023/09/30 00:50:08;;;;;;;8.32;1.83;;;17.80;98.40;;;;;;5097610;28;20800;-70
2023/09/30 00:52:36;;;;;;;6.40;1.80;;;17.80;98.40;;;;;;5102679;28;20027;-70
2023/09/30 00:55:05;;;;;;;3.55;1.38;;;17.70;98.40;;;;;;5101449;28;20047;-69
2023/09/30 00:57:31;;;;;;;8.00;2.08;;;17.70;98.60;;;;;;5104395;28;20035;-70
2023/09/30 00:59:58;;;;;;;6.43;1.58;;;17.60;98.60;;;;;;5097180;28;20070;-69
2023/09/30 01:02:24;;;;;;;6.35;1.42;;;17.60;98.80;;;;;;5099432;28;20039;-70
2023/09/30 01:04:50;;;;;;;3.30;1.20;;;17.50;98.90;;;;;;5102804;28;20036;-70
2023/09/30 01:07:16;;;;;;;2.95;1.27;;;17.40;99.10;;;;;;5104720;28;20136;-70
2023/09/30 01:09:42;;;;;;;9.45;2.00;;;17.40;99.10;;;;;;5097745;28;20484;-70
2023/09/30 01:12:08;;;;;;;6.40;2.35;;;17.30;99.00;;;;;;5101782;28;20513;-69
2023/09/30 01:14:38;;;;;;;4.97;1.70;;;17.30;99.10;;;;;;5098849;28;20035;-70
2023/09/30 01:17:08;;;;;;;4.72;1.52;;;17.20;99.00;;;;;;5103734;28;20036;-69
2023/09/30 01:19:34;;;;;;;5.97;1.50;;;17.20;99.40;;;;;;5102233;28;20570;-69
2023/09/30 01:22:00;;;;;;;10.10;1.98;;;17.20;99.40;;;;;;5101233;28;20062;-69
2023/09/30 01:24:28;;;;;;;4.43;1.48;;;17.10;99.60;;;;;;5098283;28;20380;-69
2023/09/30 01:26:54;;;;;;;6.60;1.42;;;17.00;99.50;;;;;;5101359;28;20075;-70
2023/09/30 01:29:20;;;;;;;3.22;1.40;;;17.00;99.70;;;;;;5099108;28;20051;-69
2023/09/30 01:31:49;;;;;;;4.93;1.52;;;16.90;99.80;;;;;;5103346;28;20505;-70
2023/09/30 01:34:16;;;;;;;7.03;1.63;;;16.80;99.90;;;;;;5102098;28;20546;-68
2023/09/30 01:36:43;;;;;;;4.78;1.73;;;16.80;99.90;;;;;;5103721;28;20122;-68
2023/09/30 01:39:13;;;;;;;6.30;1.88;;;16.70;99.90;;;;;;5099309;28;20069;-68
2023/09/30 01:41:42;;;;;;;7.65;1.48;;;16.70;99.90;;;;;;5100287;28;20039;-69
2023/09/30 01:44:09;;;;;;;6.90;1.98;;;16.70;99.90;;;;;;5100718;28;20491;-68
2023/09/30 01:46:36;;;;;;;5.80;1.48;;;16.60;99.90;;;;;;5105574;28;20084;-69
2023/09/30 01:49:03;;;;;;;8.13;1.60;;;16.60;99.90;;;;;;5102738;28;20023;-69
2023/09/30 01:51:30;;;;;;;5.53;1.95;;;16.60;99.90;;;;;;5101890;28;20031;-69
2023/09/30 01:53:57;;;;;;;7.88;1.58;;;16.50;99.90;;;;;;5099182;28;20594;-68
2023/09/30 01:56:23;;;;;;;9.35;1.77;;;16.50;99.90;;;;;;5098512;27;20027;-69
2023/09/30 01:58:49;;;;;;;6.85;1.50;;;16.50;99.90;;;;;;5097870;28;20073;-68
2023/09/30 02:01:15;;;;;;;6.65;1.60;;;16.40;99.90;;;;;;5096109;28;20662;-68
2023/09/30 02:03:41;;;;;;;7.05;1.83;;;16.40;99.90;;;;;;5101804;28;20028;-69
2023/09/30 02:06:08;;;;;;;6.50;1.63;;;16.40;99.90;;;;;;5099802;28;20039;-68
2023/09/30 02:08:36;;;;;;;3.33;1.52;;;16.40;99.90;;;;;;5102550;28;20036;-69
2023/09/30 02:11:05;;;;;;;11.63;2.28;;;16.30;99.90;;;;;;5098405;28;20021;-69
2023/09/30 02:13:35;;;;;;;6.28;1.65;;;16.30;99.90;;;;;;5101999;28;20106;-68
2023/09/30 02:16:01;;;;;;;6.72;1.73;;;16.30;99.90;;;;;;5100632;28;20127;-68
2023/09/30 02:18:27;;;;;;;5.88;1.88;;;16.20;99.90;;;;;;5102562;28;20032;-69
2023/09/30 02:20:53;;;;;;;13.27;2.17;;;16.20;99.90;;;;;;5115004;27;20032;-69
2023/09/30 02:23:19;;;;;;;7.70;1.80;;;16.20;99.90;;;;;;5102702;28;20691;-69
2023/09/30 02:25:45;;;;;;;8.65;1.92;;;16.30;99.90;;;;;;5095675;28;20157;-69
2023/09/30 02:28:11;;;;;;;7.93;2.10;;;16.20;99.90;;;;;;5102692;28;20103;-69
2023/09/30 02:30:36;;;;;;;9.15;2.00;;;16.20;99.90;;;;;;5096649;28;20176;-68
2023/09/30 02:33:04;;;;;;;7.78;1.73;;;16.10;99.90;;;;;;5101441;28;20035;-69
2023/09/30 02:35:30;;;;;;;7.95;2.22;;;16.00;99.90;;;;;;5103121;28;20036;-68
2023/09/30 02:37:56;;;;;;;5.10;2.00;;;16.00;99.90;;;;;;5100923;28;20043;-68
2023/09/30 02:40:24;;;;;;;8.50;2.30;;;16.00;99.90;;;;;;5098884;28;20112;-68
2023/09/30 02:42:50;;;;;;;5.72;1.80;;;16.00;99.90;;;;;;5100208;28;20036;-68
2023/09/30 02:45:19;;;;;;;7.78;2.25;;;16.00;99.90;;;;;;5099134;28;20077;-68
2023/09/30 02:47:45;;;;;;;6.25;2.10;;;16.00;99.90;;;;;;5102848;28;20031;-69
2023/09/30 02:50:11;;;;;;;7.78;2.28;;;16.00;99.90;;;;;;5099714;28;20019;-69
2023/09/30 02:52:40;;;;;;;8.68;2.08;;;15.90;99.90;;;;;;5102637;28;20051;-69
2023/09/30 02:55:08;;;;;;;5.88;2.35;;;15.90;99.90;;;;;;5101144;28;20024;-69
2023/09/30 02:57:35;;;;;;;5.00;1.77;;;15.90;99.90;;;;;;5102891;28;20072;-69
2023/09/30 03:00:12;;;;;;;6.35;2.25;;;15.90;99.90;;;;;;5108091;28;20677;-69
2023/09/30 03:02:37;;;;;;;10.65;2.53;;;15.90;99.90;;;;;;5105489;28;20035;-69
2023/09/30 03:05:04;;;;;;;10.68;2.50;;;15.90;99.90;;;;;;5103307;28;20036;-69
2023/09/30 03:07:33;;;;;;;6.35;1.80;;;15.90;99.90;;;;;;5107333;28;20500;-69
2023/09/30 03:10:04;;;;;;;6.97;1.90;;;15.80;99.90;;;;;;5100300;28;20032;-68
2023/09/30 03:12:31;;;;;;;6.88;2.00;;;15.80;99.90;;;;;;5109500;28;20080;-69
2023/09/30 03:14:57;;;;;;;8.68;2.08;;;15.80;99.90;;;;;;5106224;28;20028;-69
2023/09/30 03:17:25;;;;;;;6.25;2.28;;;15.80;99.90;;;;;;5105790;28;20112;-69
2023/09/30 03:19:51;;;;;;;8.93;1.90;;;15.80;99.90;;;;;;5105491;28;20031;-69
2023/09/30 03:22:17;;;;;;;7.38;2.08;;;15.70;99.90;;;;;;5101631;28;20063;-69
2023/09/30 03:24:42;;;;;;;6.78;1.92;;;15.70;99.90;;;;;;5102927;28;20116;-68
2023/09/30 03:27:08;;;;;;;5.00;1.35;;;15.70;99.90;;;;;;5109013;28;20104;-68
2023/09/30 03:29:38;;;;;;;9.27;1.90;;;15.70;99.90;;;;;;5107570;28;20387;-68
2023/09/30 03:32:03;;;;;;;5.95;1.85;;;15.70;99.90;;;;;;5105084;28;20032;-68
2023/09/30 03:34:29;;;;;;;10.57;2.30;;;15.70;99.90;;;;;;5106697;28;20096;-68
2023/09/30 03:36:58;;;;;;;8.10;2.63;;;15.70;99.90;;;;;;5098841;28;20070;-68
2023/09/30 03:39:27;;;;;;;6.28;2.20;;;15.60;99.90;;;;;;5109128;28;20036;-68
2023/09/30 03:41:56;;;;;;;10.48;2.13;;;15.70;99.90;;;;;;5105410;28;20038;-68
2023/09/30 03:44:23;;;;;;;6.13;1.85;;;15.70;99.90;;;;;;5107628;28;20050;-69
2023/09/30 03:46:50;;;;;;;9.65;2.17;;;15.70;99.90;;;;;;5107469;28;20038;-69
2023/09/30 03:49:16;;;;;;;7.95;2.33;;;15.60;99.90;;;;;;5109209;28;20027;-69
2023/09/30 03:51:42;;;;;;;8.20;2.53;;;15.60;99.90;;;;;;5105561;28;20038;-69
2023/09/30 03:54:08;;;;;;;6.22;2.03;;;15.60;99.90;;;;;;5108562;28;20035;-69
2023/09/30 03:56:34;;;;;;;11.18;2.50;;;15.50;99.90;;;;;;5106199;28;20058;-69
2023/09/30 03:59:00;;;;;;;8.00;1.75;;;15.50;99.90;;;;;;5104235;28;20476;-69
2023/09/30 04:01:26;;;;;;;10.48;2.17;;;15.50;99.90;;;;;;5101221;28;20027;-69
2023/09/30 04:03:55;;;;;;;9.48;2.22;;;15.50;99.90;;;;;;5104054;28;20039;-69
2023/09/30 04:06:21;;;;;;;11.25;2.80;;;15.50;99.90;;;;;;5106677;28;20579;-69
2023/09/30 04:08:46;;;;;;;7.72;2.33;;;15.50;99.90;;;;;;5104782;28;20031;-69
2023/09/30 04:11:17;;;;;;;6.43;2.38;;;15.40;99.90;;;;;;5105085;28;20023;-69
2023/09/30 04:13:44;;;;;;;8.05;2.28;;;15.40;99.90;;;;;;5108382;28;20028;-69
2023/09/30 04:16:11;;;;;;;7.82;2.30;;;15.30;99.90;;;;;;5108338;28;20052;-69
2023/09/30 04:18:38;;;;;;;3.80;1.42;;;15.40;99.90;;;;;;5107396;28;20101;-68
2023/09/30 04:21:07;;;;;;;10.82;2.20;;;15.30;99.90;;;;;;5105831;28;20043;-69
2023/09/30 04:23:33;;;;;;;6.82;2.03;;;15.30;99.90;;;;;;5106902;28;20748;-69
2023/09/30 04:25:59;;;;;;;6.15;2.13;;;15.20;99.90;;;;;;5103402;28;20074;-69
2023/09/30 04:28:25;;;;;;;10.73;2.28;;;15.20;99.90;;;;;;5108135;28;20035;-69
2023/09/30 04:30:51;;;;;;;7.25;2.42;;;15.20;99.90;;;;;;5104971;28;20700;-68
2023/09/30 04:33:20;;;;;;;5.93;2.00;;;15.20;99.90;;;;;;5107837;28;20680;-69
2023/09/30 04:35:46;;;;;;;9.02;2.30;;;15.20;99.90;;;;;;5107929;28;20039;-69
2023/09/30 04:38:13;;;;;;;7.07;2.15;;;15.10;99.90;;;;;;5107608;28;20031;-69
2023/09/30 04:40:39;;;;;;;8.85;2.22;;;15.10;99.90;;;;;;5106100;28;20031;-69
2023/09/30 04:43:05;;;;;;;6.90;2.05;;;15.10;99.90;;;;;;5107620;28;20068;-69
2023/09/30 04:45:31;;;;;;;8.73;2.00;;;15.10;99.90;;;;;;5107514;28;20722;-69
2023/09/30 04:47:57;;;;;;;7.75;2.03;;;15.10;99.90;;;;;;5099930;28;20032;-69
2023/09/30 04:50:23;;;;;;;8.32;1.80;;;15.00;99.90;;;;;;5104790;28;20060;-68
2023/09/30 04:52:51;;;;;;;10.40;2.65;;;15.00;99.90;;;;;;5096672;28;20392;-67
2023/09/30 04:55:18;;;;;;;5.47;2.17;;;15.00;99.90;;;;;;5103756;28;20030;-68
2023/09/30 04:57:47;;;;;;;8.30;1.80;;;15.00;99.90;;;;;;5100502;28;20141;-68
2023/09/30 05:00:18;;;;;;;6.60;1.60;;;15.00;99.90;;;;;;5103787;28;20038;-68
2023/09/30 05:02:45;;;;;;;13.52;2.53;;;14.90;99.90;;;;;;5100524;28;20051;-68
2023/09/30 05:05:11;;;;;;;4.55;1.83;;;14.90;99.90;;;;;;5104187;28;20027;-68
2023/09/30 05:07:37;;;;;;;9.48;2.10;;;14.90;99.90;;;;;;5103451;28;20030;-68
2023/09/30 05:10:10;;;;;;;8.65;2.60;;;14.90;99.90;;;;;;5103751;28;20027;-69
2023/09/30 05:12:36;;;;;;;7.60;2.35;;;14.90;99.90;;;;;;5098006;28;20510;-68
2023/09/30 05:15:03;;;;;;;11.07;2.47;;;14.80;99.90;;;;;;5098700;28;20033;-68
2023/09/30 05:17:32;;;;;;;8.48;2.22;;;14.90;99.90;;;;;;5098489;28;20038;-68
2023/09/30 05:19:58;;;;;;;5.55;2.10;;;14.90;99.90;;;;;;5102690;28;20027;-68
2023/09/30 05:22:24;;;;;;;9.23;2.42;;;14.90;99.90;;;;;;5098442;28;20024;-68
2023/09/30 05:24:56;;;;;;;5.90;2.20;;;14.90;99.90;;;;;;5102608;28;20475;-68
2023/09/30 05:27:22;;;;;;;12.27;2.85;;;14.80;99.90;;;;;;5102917;28;20149;-68
2023/09/30 05:29:48;;;;;;;9.95;2.08;;;14.80;99.90;;;;;;5100399;28;20498;-66
2023/09/30 05:32:14;;;;;;;10.50;2.80;;;14.90;99.90;;;;;;5100779;28;20031;-66
2023/09/30 05:34:40;;;;;;;12.48;2.22;;;14.90;99.90;;;;;;5101180;28;20837;-68
2023/09/30 05:37:06;;;;;;;9.40;2.30;;;14.90;99.90;;;;;;5100253;28;20040;-68
2023/09/30 05:39:32;;;;;;;10.48;2.88;;;14.90;99.90;;;;;;5098284;28;20039;-68
2023/09/30 05:41:58;;;;;;;10.82;2.67;;;15.00;99.90;;;;;;5099146;28;20039;-66
2023/09/30 05:44:26;;;;;;;8.05;2.10;;;15.00;99.90;;;;;;5098809;28;20608;-66
2023/09/30 05:46:51;;;;;;;5.32;2.25;;;15.00;99.90;;;;;;5097027;28;20039;-66
2023/09/30 05:49:19;;;;;;;10.10;2.20;;;15.00;99.90;;;;;;5101989;28;20028;-66
2023/09/30 05:51:46;;;;;;;6.75;2.35;;;15.10;99.90;;;;;;5099637;27;20059;-66
2023/09/30 05:54:12;;;;;;;7.65;2.17;;;15.10;99.90;;;;;;5101346;28;20065;-66
2023/09/30 05:56:39;;;;;;;11.77;2.75;;;15.20;99.90;;;;;;5100690;28;20035;-66
2023/09/30 05:59:07;;;;;;;10.77;2.60;;;15.30;99.90;;;;;;5100646;28;20051;-66
2023/09/30 06:01:33;;;;;;;11.05;2.30;;;15.40;99.90;;;;;;5101084;28;20059;-65
2023/09/30 06:04:00;;;;;;;8.32;2.25;;;15.40;99.90;;;;;;5096649;28;20443;-65
2023/09/30 06:06:28;;;;;;;7.25;2.40;;;15.40;99.90;;;;;;5102165;28;20058;-66
2023/09/30 06:08:54;;;;;;;9.50;2.55;;;15.50;99.90;;;;;;5095915;28;20070;-65
2023/09/30 06:11:28;;;;;;;8.40;2.35;;;15.50;99.90;;;;;;5104102;28;20028;-65
2023/09/30 06:14:01;;;;;;;13.27;2.63;;;15.50;99.90;;;;;;5095482;28;20047;-65
2023/09/30 06:16:27;;;;;;;8.65;2.65;;;15.50;99.90;;;;;;5102652;28;20027;-65
2023/09/30 06:18:53;;;;;;;14.82;2.88;;;15.50;99.90;;;;;;5094588;28;20043;-66
2023/09/30 06:21:21;;;;;;;6.03;2.47;;;15.50;99.90;;;;;;5102646;28;20032;-67
2023/09/30 06:23:48;;;;;;;9.60;2.20;;;15.60;99.90;;;;;;5095264;28;20089;-67
2023/09/30 06:26:17;;;;;;;10.30;2.28;;;15.60;99.90;;;;;;5099870;28;20635;-64
2023/09/30 06:28:44;;;;;;;11.30;2.95;;;15.60;99.90;;;;;;5096292;28;20833;-64
2023/09/30 06:31:11;;;;;;;7.35;2.55;;;15.60;99.90;;;;;;5101507;28;20020;-66
2023/09/30 06:33:38;;;;;;;11.20;2.60;;;15.50;99.90;;;;;;5096861;28;20476;-66
2023/09/30 06:36:11;;;;;;;11.65;2.80;;;15.60;99.90;;;;;;5101963;28;20035;-66
2023/09/30 06:38:37;;;;;;;8.88;2.35;;;15.60;99.90;;;;;;5097025;28;20484;-66
2023/09/30 06:41:04;;;;;;;11.45;2.63;;;15.60;99.90;;;;;;5101394;28;20089;-66
2023/09/30 06:43:30;;;;;;;9.48;2.30;;;15.70;99.90;;;;;;5097653;28;20039;-66
2023/09/30 06:45:55;;;;;;;9.70;2.33;;;15.70;99.90;;;;;;5100519;28;20526;-66
2023/09/30 06:48:21;;;;;;;11.20;2.75;;;15.70;99.90;;;;;;5099197;28;20463;-66
2023/09/30 06:50:48;;;;;;;7.65;2.53;;;15.80;99.90;;;;;;5099220;28;20055;-66
2023/09/30 06:53:18;;;;;;;12.82;3.20;;;15.90;99.90;;;;;;5101560;28;20123;-66
2023/09/30 06:55:45;;;;;;;18.92;3.20;;;15.90;99.90;;;;;;5099335;28;20082;-66
2023/09/30 06:58:11;;;;;;;13.85;2.67;;;15.90;99.90;;;;;;5099297;28;20527;-66
2023/09/30 07:00:38;;;;;;;12.30;2.25;;;16.00;99.90;;;;;;5100534;28;20048;-67
2023/09/30 07:03:04;;;;;;;9.93;2.75;;;16.10;99.90;;;;;;5098248;28;20082;-67
2023/09/30 07:05:30;;;;;;;12.20;2.75;;;16.10;99.90;;;;;;5100496;28;20047;-67
2023/09/30 07:07:56;;;;;;;8.43;2.38;;;16.20;99.90;;;;;;5098975;28;20032;-67
2023/09/30 07:10:22;;;;;;;13.48;2.53;;;16.20;99.90;;;;;;5100675;28;20059;-67
2023/09/30 07:12:48;;;;;;;10.82;2.17;;;16.20;99.90;;;;;;5096735;28;20032;-66
2023/09/30 07:15:13;;;;;;;7.85;2.50;;;16.20;99.90;;;;;;5096659;28;20028;-65
2023/09/30 07:17:40;;;;;;;12.93;2.80;;;16.30;99.90;;;;;;5101496;28;20023;-65
2023/09/30 07:20:06;;;;;;;12.00;2.50;;;16.30;99.90;;;;;;5099257;28;20495;-65
2023/09/30 07:22:33;;;;;;;11.55;2.50;;;16.40;99.90;;;;;;5100222;28;20398;-67
2023/09/30 07:24:59;;;;;;;14.23;2.95;;;16.40;99.90;;;;;;5098713;28;20032;-63
2023/09/30 07:27:25;;;;;;;13.32;2.72;;;16.60;99.90;;;;;;5101209;28;20023;-68
2023/09/30 07:29:51;;;;;;;8.07;3.10;;;16.60;99.90;;;;;;5097227;28;20423;-67
2023/09/30 07:32:17;;;;;;;14.95;3.20;;;16.70;99.90;;;;;;5099783;28;20024;-63
2023/09/30 07:34:42;;;;;;;14.68;2.35;;;16.70;99.90;;;;;;5098267;28;20744;-63
2023/09/30 07:37:09;;;;;;;10.70;2.10;;;16.70;99.90;;;;;;5100386;28;20134;-64
2023/09/30 07:39:35;;;;;;;9.20;2.03;;;16.70;99.90;;;;;;5097995;28;20073;-62
2023/09/30 07:42:01;;;;;;;7.50;1.80;;;16.70;99.90;;;;;;5100342;28;20131;-64
2023/09/30 07:44:27;;;;;;;7.60;2.30;;;16.70;99.90;;;;;;5101905;28;20184;-63
2023/09/30 07:46:53;;;;;;;12.63;3.03;;;16.80;99.90;;;;;;5100046;28;20031;-63
2023/09/30 07:49:19;;;;;;;10.43;2.85;;;16.80;99.90;;;;;;5101893;28;20431;-63
2023/09/30 07:51:48;;;;;;;11.80;2.30;;;16.80;99.90;;;;;;5101874;28;20023;-63
2023/09/30 07:54:14;;;;;;;9.20;2.40;;;16.90;99.90;;;;;;5100576;28;20034;-63
2023/09/30 07:56:39;;;;;;;8.45;1.90;;;16.90;99.90;;;;;;5101452;28;20032;-63
2023/09/30 07:59:05;;;;;;;8.68;2.33;;;16.90;99.90;;;;;;5100959;28;20556;-63
2023/09/30 08:01:31;;;;;;;10.13;2.63;;;17.00;99.90;;;;;;5103442;27;20039;-64
2023/09/30 08:03:57;;;;;;;9.18;2.15;;;17.00;99.90;;;;;;5099698;28;20032;-63
2023/09/30 08:06:23;;;;;;;9.80;2.30;;;17.10;99.90;;;;;;5103018;28;20027;-63
2023/09/30 08:08:49;;;;;;;13.80;2.72;;;17.20;99.90;;;;;;5100293;28;20035;-63
2023/09/30 08:11:17;;;;;;;9.27;2.60;;;17.30;99.90;;;;;;5102966;28;20038;-65
2023/09/30 08:13:43;;;;;;;10.95;2.83;;;17.30;99.90;;;;;;5099753;28;20042;-63
2023/09/30 08:16:08;;;;;;;10.40;2.13;;;17.40;99.90;;;;;;5102364;28;20036;-63
2023/09/30 08:18:34;;;;;;;14.60;2.70;;;17.40;99.90;;;;;;5102173;28;20036;-63
2023/09/30 08:21:00;;;;;;;9.20;2.35;;;17.50;99.90;;;;;;5100653;28;20467;-63
2023/09/30 08:23:26;;;;;;;6.97;1.67;;;17.50;99.90;;;;;;5103074;28;20083;-63
2023/09/30 08:25:52;;;;;;;10.70;2.42;;;17.60;99.90;;;;;;5098375;28;20062;-64
2023/09/30 08:28:18;;;;;;;10.75;2.22;;;17.60;99.90;;;;;;5103620;28;20027;-63
2023/09/30 08:30:44;;;;;;;9.35;2.28;;;17.70;99.90;;;;;;5100351;28;20039;-63
2023/09/30 08:33:10;;;;;;;12.75;2.47;;;17.70;99.90;;;;;;5102507;28;20146;-63
2023/09/30 08:35:39;;;;;;;7.88;2.33;;;17.70;99.90;;;;;;5100414;28;20414;-63
2023/09/30 08:38:05;;;;;;;9.82;2.45;;;17.80;99.90;;;;;;5102327;28;20040;-63
2023/09/30 08:40:31;;;;;;;10.18;2.75;;;17.80;99.90;;;;;;5100640;28;20071;-63
2023/09/30 08:42:57;;;;;;;17.67;3.08;;;17.80;99.90;;;;;;5102380;28;20070;-66
2023/09/30 08:45:24;;;;;;;11.65;2.65;;;17.90;99.90;;;;;;5100395;28;20467;-66
2023/09/30 08:47:50;;;;;;;7.40;2.20;;;18.20;99.90;;;;;;5103598;28;20522;-66
2023/09/30 08:50:17;;;;;;;7.22;1.95;;;18.30;99.50;;;;;;5102397;28;20027;-66
2023/09/30 08:52:44;;;;;;;9.15;2.33;;;18.50;99.30;;;;;;5099587;28;20031;-69
2023/09/30 08:55:12;;;;;;;14.93;3.40;;;18.70;98.50;;;;;;5098842;28;20073;-69
2023/09/30 08:57:40;;;;;;;11.38;2.15;;;18.90;98.60;;;;;;5100445;27;20035;-69
2023/09/30 09:00:07;;;;;;;11.73;2.55;;;19.10;98.00;;;;;;5101183;28;20031;-70
2023/09/30 09:02:35;;;;;;;7.57;2.20;;;19.30;97.80;;;;;;5104874;28;20058;-69
2023/09/30 09:05:02;;;;;;;12.02;2.70;;;19.50;97.40;;;;;;5096668;28;20036;-69
2023/09/30 09:07:28;;;;;;;12.55;2.60;;;19.70;97.20;;;;;;5100105;28;20055;-69
2023/09/30 09:10:05;;;;;;;8.02;2.40;;;19.70;96.80;;;;;;5096560;28;20059;-69
2023/09/30 09:12:33;;;;;;;13.60;2.78;;;19.80;96.70;;;;;;5100893;28;20038;-69
2023/09/30 09:14:59;;;;;;;9.90;2.35;;;19.80;96.50;;;;;;5098816;28;20911;-69
2023/09/30 09:17:42;;;;;;;8.38;2.50;;;19.80;96.30;;;;;;5103828;28;20129;-69
2023/09/30 09:20:10;;;;;;;11.52;2.05;;;19.90;96.20;;;;;;5097966;28;20032;-69
2023/09/30 09:22:44;;;;;;;11.98;2.83;;;19.90;96.10;;;;;;5103173;28;20400;-66
2023/09/30 09:25:10;;;;;;;11.80;2.60;;;20.00;95.70;;;;;;5095673;28;20032;-67
2023/09/30 09:27:37;;;;;;;8.35;2.20;;;20.00;95.80;;;;;;5102492;28;20024;-67
2023/09/30 09:30:22;;;;;;;8.38;1.92;;;20.00;95.70;;;;;;5096547;28;20491;-67
2023/09/30 09:33:07;;;;;;;5.93;1.63;;;20.10;95.40;;;;;;5099689;28;20483;-67
2023/09/30 09:35:35;;;;;;;6.88;1.73;;;20.20;95.10;;;;;;5094405;28;20484;-67
2023/09/30 09:38:05;;;;;;;6.90;1.70;;;20.20;95.00;;;;;;5099873;28;20111;-66
2023/09/30 09:40:33;;;;;;;8.00;1.70;;;20.30;95.00;;;;;;5097186;28;20805;-67
2023/09/30 09:43:02;;;;;;;9.85;1.63;;;20.40;94.80;;;;;;5099591;28;20101;-67
2023/09/30 09:45:28;;;;;;;8.18;1.50;;;20.40;94.40;;;;;;5097601;28;20036;-67
2023/09/30 09:47:54;;;;;;;9.43;2.13;;;20.50;94.10;;;;;;5099768;28;20074;-67
2023/09/30 09:50:21;;;;;;;7.72;1.52;;;20.70;93.90;;;;;;5095838;28;20027;-67
2023/09/30 09:52:53;;;;;;;10.32;1.88;;;20.80;93.60;;;;;;5100518;28;20028;-67
2023/09/30 09:55:21;;;;;;;9.63;2.00;;;20.80;93.00;;;;;;5079189;28;20519;-67
2023/09/30 09:57:48;;;;;;;12.15;2.05;;;20.90;93.10;;;;;;5095421;28;20032;-67
2023/09/30 10:00:23;;;;;;;9.48;2.20;;;20.90;93.30;;;;;;5096574;28;20760;-66
2023/09/30 10:02:50;;;;;;;10.77;2.00;;;21.00;92.30;;;;;;5097747;28;20062;-67
2023/09/30 10:05:18;;;;;;;6.35;1.40;;;21.00;93.10;;;;;;5098365;28;20088;-67
2023/09/30 10:07:52;;;;;;;10.00;2.42;;;21.10;92.50;;;;;;5100864;28;20050;-67
2023/09/30 10:10:20;;;;;;;7.40;1.75;;;21.20;92.10;;;;;;5096981;28;20713;-67
2023/09/30 10:12:47;;;;;;;4.03;1.15;;;21.20;91.90;;;;;;5100661;28;20036;-66
2023/09/30 10:15:24;;;;;;;8.88;1.92;;;21.30;91.50;;;;;;5096038;28;20119;-66
2023/09/30 10:18:06;;;;;;;7.72;1.33;;;21.40;90.80;;;;;;5097759;28;20028;-66
2023/09/30 10:20:34;;;;;;;9.18;2.47;;;21.50;91.30;;;;;;5096226;28;20035;-66
2023/09/30 10:23:19;;;;;;;7.97;1.83;;;21.80;91.10;;;;;;5099026;28;20624;-66
2023/09/30 10:25:49;;;;;;;10.32;1.80;;;22.20;89.80;;;;;;5094735;28;20471;-67
2023/09/30 10:28:46;;;;;;;7.82;2.00;;;22.90;87.20;;;;;;5099930;28;20465;-67
2023/09/30 10:31:16;;;;;;;6.78;1.40;;;23.80;84.70;;;;;;5094900;28;20024;-69
2023/09/30 10:34:00;;;;;;;9.43;1.75;;;24.00;83.30;;;;;;5098919;28;20024;-66
2023/09/30 10:36:33;;;;;;;11.00;1.83;;;24.00;81.90;;;;;;5095910;28;20061;-66
2023/09/30 10:38:59;;;;;;;7.45;1.58;;;24.20;81.80;;;;;;5097524;28;20131;-66
2023/09/30 10:41:40;;;;;;;7.03;1.85;;;24.70;79.30;;;;;;5095901;28;20050;-66
2023/09/30 10:44:25;;;;;;;7.38;1.75;;;25.70;77.60;;;;;;5097444;28;20415;-66
2023/09/30 10:46:51;;;;;;;12.48;2.10;;;26.80;74.70;;;;;;5095712;28;20039;-66
2023/09/30 10:49:23;;;;;;;7.57;2.10;;;27.00;71.20;;;;;;5096808;28;20020;-66
2023/09/30 10:51:56;;;;;;;6.63;2.05;;;27.10;71.30;;;;;;5093021;28;20047;-66
2023/09/30 10:54:30;;;;;;;8.90;1.98;;;27.10;69.80;;;;;;5096554;28;20486;-66
2023/09/30 10:57:01;;;;;;;9.88;1.58;;;27.00;68.40;;;;;;5096071;28;20031;-66
2023/09/30 10:59:30;;;;;;;4.85;1.50;;;26.50;69.20;;;;;;5099105;28;20726;-66
2023/09/30 11:01:56;;;;;;;7.55;2.55;;;25.80;70.10;;;;;;5095274;28;20032;-66
2023/09/30 11:04:22;;;;;;;8.35;1.50;;;25.00;72.00;;;;;;5099115;28;20040;-66
2023/09/30 11:06:50;;;;;;;4.35;1.20;;;24.50;73.80;;;;;;5098404;28;20080;-66
2023/09/30 11:09:17;;;;;;;6.63;1.77;;;24.00;75.10;;;;;;5098424;28;20108;-66
2023/09/30 11:11:51;;;;;;;5.47;1.48;;;23.70;75.80;;;;;;5096395;28;20039;-66
2023/09/30 11:14:26;;;;;;;9.45;1.85;;;23.40;76.70;;;;;;5098282;28;20080;-66
2023/09/30 11:16:53;;;;;;;4.95;1.30;;;23.30;76.70;;;;;;5096247;28;20872;-66
2023/09/30 11:19:20;;;;;;;9.15;1.88;;;23.30;77.70;;;;;;5102472;28;20653;-66
2023/09/30 11:21:58;;;;;;;6.13;1.15;;;23.20;75.10;;;;;;5100421;28;20115;-67
2023/09/30 11:24:25;;;;;;;6.38;1.42;;;23.10;76.30;;;;;;5078893;28;20046;-66
2023/09/30 11:26:55;;;;;;;6.68;1.65;;;23.00;76.70;;;;;;5099140;28;20035;-66
2023/09/30 11:29:21;;;;;;;6.55;1.67;;;23.00;77.60;;;;;;5100601;28;20019;-67
2023/09/30 11:31:50;;;;;;;7.13;1.83;;;23.00;76.90;;;;;;5099985;28;20518;-65
2023/09/30 11:34:17;;;;;;;6.22;1.10;;;23.00;76.50;;;;;;5102606;28;20053;-67
2023/09/30 11:36:51;;;;;;;6.65;1.40;;;23.00;75.40;;;;;;5100330;28;20031;-66
2023/09/30 11:39:24;;;;;;;8.85;1.15;;;22.90;75.20;;;;;;5099343;28;20024;-66
2023/09/30 11:41:52;;;;;;;7.78;1.60;;;22.90;74.80;;;;;;5097126;28;20036;-66
2023/09/30 11:44:18;;;;;;;6.22;1.20;;;23.00;76.00;;;;;;5102116;28;20501;-66
2023/09/30 11:46:49;;;;;;;6.55;1.52;;;22.80;74.50;;;;;;5097700;28;20040;-65
2023/09/30 11:49:24;;;;;;;4.43;1.02;;;22.80;74.70;;;;;;5102842;28;20067;-65
2023/09/30 11:51:50;;;;;;;10.23;1.40;;;22.80;73.40;;;;;;5097060;28;20111;-65
2023/09/30 11:54:16;;;;;;;7.38;1.50;;;22.80;73.10;;;;;;5102698;28;20032;-66
2023/09/30 11:56:42;;;;;;;4.72;1.40;;;22.80;73.20;;;;;;5095947;28;20740;-67
2023/09/30 11:59:10;;;;;;;9.90;1.67;;;22.80;74.00;;;;;;5103091;28;20032;-66
2023/09/30 12:01:39;;;;;;;5.00;1.10;;;22.80;74.10;;;;;;5097106;28;20031;-66
2023/09/30 12:04:06;;;;;;;5.70;1.42;;;22.80;74.20;;;;;;5101756;28;20227;-66
2023/09/30 12:06:34;;;;;;;4.40;1.33;;;22.80;74.20;;;;;;5100930;28;20020;-66
2023/09/30 12:09:00;;;;;;;5.05;1.25;;;22.80;71.80;;;;;;5098142;28;20034;-65
2023/09/30 12:11:25;;;;;;;5.63;1.20;;;22.80;73.20;;;;;;5100318;28;20035;-67
2023/09/30 12:13:51;;;;;;;8.60;1.30;;;22.80;73.00;;;;;;5100248;28;20031;-67
2023/09/30 12:16:17;;;;;;;4.55;1.20;;;22.80;72.60;;;;;;5099477;28;20028;-66
2023/09/30 12:18:43;;;;;;;4.07;1.55;;;22.80;73.10;;;;;;5098053;27;20031;-67
2023/09/30 12:21:10;;;;;;;4.15;1.00;;;22.80;72.40;;;;;;5094056;28;20075;-66
2023/09/30 12:23:37;;;;;;;3.83;1.10;;;22.80;72.20;;;;;;5101229;28;20031;-66
2023/09/30 12:26:05;;;;;;;4.63;1.05;;;22.80;72.60;;;;;;5097856;28;20630;-66
2023/09/30 12:28:32;;;;;;;9.35;1.27;;;22.80;72.40;;;;;;5101284;28;20108;-66
2023/09/30 12:31:04;;;;;;;6.18;1.23;;;22.80;72.30;;;;;;5097353;28;20028;-66
2023/09/30 12:33:32;;;;;;;9.02;1.33;;;22.70;72.60;;;;;;5101277;28;20028;-66
2023/09/30 12:35:58;;;;;;;5.53;1.27;;;22.70;72.60;;;;;;5103532;27;20027;-66
2023/09/30 12:38:28;;;;;;;8.02;1.65;;;22.70;72.70;;;;;;5100469;28;20062;-67
2023/09/30 12:40:54;;;;;;;5.28;1.50;;;22.50;72.40;;;;;;5097961;28;20400;-66
2023/09/30 12:43:20;;;;;;;5.28;1.42;;;22.40;73.10;;;;;;5101257;28;20027;-66
2023/09/30 12:45:47;;;;;;;4.93;1.10;;;22.40;72.10;;;;;;5094105;28;20040;-66